createdAt,value
2018-05-26T00:01:16.613Z,16.08
2018-05-26T00:03:44.143Z,16.13
2018-05-26T00:06:11.672Z,15.97
2018-05-26T00:08:39.184Z,15.85
2018-05-26T00:11:06.706Z,15.96
2018-05-26T00:13:34.281Z,15.72
2018-05-26T00:16:01.815Z,15.77
2018-05-26T00:18:29.401Z,15.79
2018-05-26T00:20:56.983Z,15.78
2018-05-26T00:23:24.499Z,15.79
2018-05-26T00:25:52.030Z,16.01
2018-05-26T00:28:19.536Z,16.12
2018-05-26T00:30:47.035Z,16.14
2018-05-26T00:33:14.568Z,16.19
2018-05-26T00:35:42.089Z,16.24
2018-05-26T00:38:09.612Z,16.31
2018-05-26T00:40:37.165Z,16.41
2018-05-26T00:43:04.725Z,16.49
2018-05-26T00:45:32.271Z,16.39
2018-05-26T00:47:59.796Z,16.46
2018-05-26T00:50:27.343Z,16.48
2018-05-26T00:52:54.870Z,16.49
2018-05-26T00:55:22.378Z,16.51
2018-05-26T00:57:49.932Z,16.48
2018-05-26T01:00:17.478Z,16.35
2018-05-26T01:02:44.987Z,16.34
2018-05-26T01:05:12.486Z,16.31
2018-05-26T01:07:40.017Z,16.25
2018-05-26T01:10:07.526Z,16.21
2018-05-26T01:12:35.031Z,16.22
2018-05-26T01:15:02.531Z,16.09
2018-05-26T01:17:30.126Z,16.06
2018-05-26T01:19:57.646Z,16.10
2018-05-26T01:22:25.173Z,16.22
2018-05-26T01:24:52.689Z,16.16
2018-05-26T01:27:20.212Z,16.14
2018-05-26T01:29:47.714Z,16.22
2018-05-26T01:32:15.236Z,16.23
2018-05-26T01:34:42.744Z,16.29
2018-05-26T01:37:10.273Z,16.32
2018-05-26T01:39:37.795Z,16.24
2018-05-26T01:42:05.312Z,16.26
2018-05-26T01:44:32.830Z,16.23
2018-05-26T01:47:00.400Z,16.09
2018-05-26T01:49:27.910Z,16.16
2018-05-26T01:51:55.428Z,16.16
2018-05-26T01:54:22.932Z,16.14
2018-05-26T01:56:50.523Z,16.11
2018-05-26T01:59:18.043Z,16.01
2018-05-26T02:01:45.582Z,16.01
2018-05-26T02:04:13.142Z,16.08
2018-05-26T02:06:40.703Z,16.07
2018-05-26T02:09:08.267Z,16.02
2018-05-26T02:11:35.816Z,16.04
2018-05-26T02:14:03.335Z,15.90
2018-05-26T02:16:30.858Z,15.87
2018-05-26T02:18:58.381Z,15.84
2018-05-26T02:21:25.927Z,15.81
2018-05-26T02:23:53.439Z,15.73
2018-05-26T02:26:20.958Z,15.88
2018-05-26T02:28:48.462Z,15.89
2018-05-26T02:31:16.017Z,15.89
2018-05-26T02:33:43.544Z,15.85
2018-05-26T02:36:11.100Z,15.75
2018-05-26T02:38:38.615Z,15.77
2018-05-26T02:41:06.162Z,15.68
2018-05-26T02:43:33.716Z,15.62
2018-05-26T02:46:01.274Z,15.57
2018-05-26T02:48:29.750Z,15.55
2018-05-26T02:50:57.267Z,15.54
2018-05-26T02:53:24.833Z,15.42
2018-05-26T02:55:52.365Z,15.36
2018-05-26T02:58:19.911Z,15.35
2018-05-26T03:00:47.473Z,15.36
2018-05-26T03:03:15.020Z,15.36
2018-05-26T03:05:48.215Z,15.25
2018-05-26T03:08:21.144Z,15.23
2018-05-26T03:10:54.260Z,15.32
2018-05-26T03:13:27.195Z,15.30
2018-05-26T03:16:13.443Z,15.32
2018-05-26T03:18:40.962Z,15.26
2018-05-26T03:21:08.526Z,15.32
2018-05-26T03:23:36.087Z,15.36
2018-05-26T03:26:03.620Z,15.36
2018-05-26T03:28:31.159Z,15.32
2018-05-26T03:30:58.721Z,15.35
2018-05-26T03:33:26.254Z,15.34
2018-05-26T03:35:53.773Z,15.36
2018-05-26T03:38:21.336Z,15.40
2018-05-26T03:40:48.849Z,15.45
2018-05-26T03:43:16.397Z,15.48
2018-05-26T03:45:44.288Z,15.45
2018-05-26T03:48:11.815Z,15.50
2018-05-26T03:50:39.388Z,15.54
2018-05-26T03:53:06.915Z,15.58
2018-05-26T03:55:46.252Z,15.56
2018-05-26T03:58:34.530Z,15.53
2018-05-26T04:01:02.044Z,15.63
2018-05-26T04:03:29.569Z,15.64
2018-05-26T04:05:57.229Z,15.79
2018-05-26T04:08:24.695Z,15.79
2018-05-26T04:10:52.216Z,15.86
2018-05-26T04:13:19.764Z,15.98
2018-05-26T04:15:47.278Z,16.05
2018-05-26T04:18:14.867Z,16.08
2018-05-26T04:20:42.438Z,16.17
2018-05-26T04:23:09.942Z,16.23
2018-05-26T04:25:37.467Z,16.29
2018-05-26T04:28:05.017Z,16.31
2018-05-26T04:30:32.576Z,16.35
2018-05-26T04:33:00.155Z,16.38
2018-05-26T04:35:27.772Z,16.25
2018-05-26T04:37:55.312Z,16.16
2018-05-26T04:40:22.837Z,16.15
2018-05-26T04:42:50.380Z,16.02
2018-05-26T04:47:44.759Z,16.17
2018-05-26T04:50:12.288Z,16.24
2018-05-26T04:52:39.817Z,16.30
2018-05-26T04:55:07.335Z,16.45
2018-05-26T04:57:34.845Z,16.56
2018-05-26T05:00:03.544Z,16.70
2018-05-26T05:02:31.096Z,16.77
2018-05-26T05:04:58.650Z,16.91
2018-05-26T05:07:26.184Z,17.02
2018-05-26T05:09:53.759Z,17.09
2018-05-26T05:12:21.316Z,17.15
2018-05-26T05:14:48.925Z,17.25
2018-05-26T05:17:16.496Z,17.30
2018-05-26T05:19:44.045Z,17.32
2018-05-26T05:22:11.555Z,17.38
2018-05-26T05:24:39.089Z,17.44
2018-05-26T05:27:06.652Z,17.49
2018-05-26T05:29:34.232Z,17.62
2018-05-26T05:32:01.759Z,17.75
2018-05-26T05:34:29.336Z,17.67
2018-05-26T05:36:57.599Z,17.86
2018-05-26T05:39:25.178Z,18.05
2018-05-26T05:41:52.693Z,18.21
2018-05-26T05:44:20.191Z,18.40
2018-05-26T05:46:47.953Z,18.53
2018-05-26T05:49:15.476Z,18.64
2018-05-26T05:51:43.017Z,18.67
2018-05-26T05:54:10.524Z,18.77
2018-05-26T05:56:38.899Z,18.86
2018-05-26T05:59:06.455Z,18.85
2018-05-26T06:01:34.016Z,18.99
2018-05-26T06:04:01.512Z,19.07
2018-05-26T06:06:29.068Z,19.18
2018-05-26T06:08:56.615Z,19.25
2018-05-26T06:11:24.141Z,19.31
2018-05-26T06:13:51.638Z,19.32
2018-05-26T06:16:19.199Z,19.43
2018-05-26T06:18:46.740Z,19.56
2018-05-26T06:21:14.276Z,19.55
2018-05-26T06:23:41.803Z,19.55
2018-05-26T06:26:09.350Z,19.56
2018-05-26T06:28:36.874Z,19.66
2018-05-26T06:31:05.268Z,19.81
2018-05-26T06:33:32.771Z,19.96
2018-05-26T06:36:00.299Z,20.06
2018-05-26T06:38:27.815Z,20.14
2018-05-26T06:40:55.340Z,20.16
2018-05-26T06:43:22.868Z,20.26
2018-05-26T06:45:50.373Z,20.34
2018-05-26T06:48:17.912Z,20.34
2018-05-26T06:50:45.414Z,20.40
2018-05-26T06:53:12.926Z,20.55
2018-05-26T06:55:40.451Z,20.59
2018-05-26T06:58:07.951Z,20.59
2018-05-26T07:00:35.455Z,20.66
2018-05-26T07:03:03.020Z,20.76
2018-05-26T07:05:30.525Z,20.79
2018-05-26T07:07:58.057Z,20.86
2018-05-26T07:10:25.634Z,21.02
2018-05-26T07:12:53.140Z,21.16
2018-05-26T07:15:20.636Z,21.18
2018-05-26T07:17:48.139Z,21.31
2018-05-26T07:20:15.661Z,21.46
2018-05-26T07:22:43.171Z,21.51
2018-05-26T07:25:10.689Z,21.52
2018-05-26T07:27:38.205Z,21.53
2018-05-26T07:30:05.729Z,21.47
2018-05-26T07:32:33.234Z,21.63
2018-05-26T07:35:00.750Z,21.68
2018-05-26T07:37:28.273Z,21.73
2018-05-26T07:39:55.787Z,21.75
2018-05-26T07:42:23.309Z,21.87
2018-05-26T07:44:50.860Z,22.02
2018-05-26T07:47:18.397Z,22.16
2018-05-26T07:49:45.979Z,22.27
2018-05-26T07:52:13.481Z,22.14
2018-05-26T07:54:40.995Z,22.15
2018-05-26T07:57:08.569Z,22.17
2018-05-26T07:59:36.058Z,22.18
2018-05-26T08:02:03.592Z,22.33
2018-05-26T08:04:31.103Z,22.35
2018-05-26T08:07:00.804Z,22.46
2018-05-26T08:09:29.117Z,22.41
2018-05-26T08:11:57.528Z,22.52
2018-05-26T08:14:25.066Z,22.58
2018-05-26T08:16:52.668Z,22.48
2018-05-26T08:19:20.166Z,22.69
2018-05-26T08:21:48.882Z,22.89
2018-05-26T08:24:16.383Z,23.04
2018-05-26T08:26:44.698Z,23.23
2018-05-26T08:29:12.206Z,23.26
2018-05-26T08:31:39.793Z,23.31
2018-05-26T08:34:07.309Z,23.40
2018-05-26T08:36:34.853Z,23.47
2018-05-26T08:39:02.463Z,23.72
2018-05-26T08:41:29.980Z,23.63
2018-05-26T08:43:57.522Z,23.71
2018-05-26T08:46:25.101Z,23.80
2018-05-26T08:48:52.611Z,23.92
2018-05-26T08:51:20.109Z,24.11
2018-05-26T08:53:47.641Z,24.28
2018-05-26T08:56:15.187Z,24.36
2018-05-26T08:58:43.489Z,24.41
2018-05-26T09:01:11.914Z,24.55
2018-05-26T09:03:39.487Z,24.63
2018-05-26T09:06:07.903Z,24.81
2018-05-26T09:08:35.426Z,24.92
2018-05-26T09:11:05.033Z,24.93
2018-05-26T09:13:32.548Z,24.91
2018-05-26T09:16:00.064Z,24.99
2018-05-26T09:18:27.650Z,24.85
2018-05-26T09:20:55.176Z,25.00
2018-05-26T09:23:22.763Z,24.87
2018-05-26T09:25:50.384Z,24.72
2018-05-26T09:28:18.280Z,24.51
2018-05-26T09:30:45.846Z,24.59
2018-05-26T09:33:14.391Z,24.60
2018-05-26T09:35:43.003Z,24.57
2018-05-26T09:38:11.381Z,24.69
2018-05-26T09:40:38.936Z,24.91
2018-05-26T09:43:07.155Z,25.24
2018-05-26T09:45:34.716Z,25.27
2018-05-26T09:48:02.249Z,25.29
2018-05-26T09:50:29.881Z,25.30
2018-05-26T09:52:57.482Z,25.35
2018-05-26T09:55:25.003Z,25.40
2018-05-26T09:57:52.539Z,25.27
2018-05-26T10:00:20.102Z,25.31
2018-05-26T10:02:47.634Z,25.37
2018-05-26T10:05:15.186Z,25.52
2018-05-26T10:07:42.748Z,25.53
2018-05-26T10:10:11.296Z,25.57
2018-05-26T10:12:38.802Z,25.64
2018-05-26T10:15:06.383Z,25.50
2018-05-26T10:17:33.961Z,25.54
2018-05-26T10:20:01.621Z,25.34
2018-05-26T10:22:29.152Z,25.35
2018-05-26T10:24:56.660Z,25.44
2018-05-26T10:27:24.207Z,25.77
2018-05-26T10:29:51.751Z,25.88
2018-05-26T10:32:19.343Z,25.88
2018-05-26T10:34:46.845Z,26.08
2018-05-26T10:37:14.415Z,26.21
2018-05-26T10:39:42.075Z,26.27
2018-05-26T10:42:09.583Z,26.57
2018-05-26T10:44:37.200Z,26.54
2018-05-26T10:47:04.790Z,26.67
2018-05-26T10:49:32.311Z,26.95
2018-05-26T10:51:59.893Z,27.13
2018-05-26T10:54:27.490Z,27.43
2018-05-26T10:56:55.759Z,27.72
2018-05-26T10:59:23.279Z,28.03
2018-05-26T11:01:50.806Z,28.15
2018-05-26T11:04:18.375Z,28.67
2018-05-26T11:06:47.657Z,28.84
2018-05-26T11:09:15.240Z,29.07
2018-05-26T11:11:42.828Z,28.93
2018-05-26T11:14:10.352Z,28.87
2018-05-26T11:16:37.936Z,28.93
2018-05-26T11:19:05.533Z,29.18
2018-05-26T11:21:33.013Z,29.70
2018-05-26T11:24:00.742Z,30.13
2018-05-26T11:26:28.048Z,30.40
2018-05-26T11:28:55.586Z,30.59
2018-05-26T11:31:23.087Z,30.79
2018-05-26T11:33:50.829Z,31.11
2018-05-26T11:36:18.372Z,31.23
2018-05-26T11:38:46.619Z,31.58
2018-05-26T11:41:14.238Z,31.88
2018-05-26T11:43:41.818Z,32.11
2018-05-26T11:46:09.349Z,32.31
2018-05-26T11:48:36.938Z,31.95
2018-05-26T11:51:04.476Z,31.52
2018-05-26T11:53:32.000Z,31.61
2018-05-26T11:55:59.552Z,31.90
2018-05-26T11:58:27.060Z,32.14
2018-05-26T12:00:54.560Z,32.53
2018-05-26T12:03:22.081Z,32.56
2018-05-26T12:05:49.625Z,32.62
2018-05-26T12:08:19.213Z,32.72
2018-05-26T12:10:46.770Z,32.72
2018-05-26T12:13:14.375Z,32.76
2018-05-26T12:15:41.944Z,31.51
2018-05-26T12:18:09.453Z,30.72
2018-05-26T12:20:38.039Z,30.28
2018-05-26T12:23:05.609Z,29.49
2018-05-26T12:25:34.156Z,29.86
2018-05-26T12:28:01.689Z,29.53
2018-05-26T12:30:29.246Z,28.94
2018-05-26T12:32:56.779Z,29.51
2018-05-26T12:35:24.342Z,29.56
2018-05-26T12:37:51.889Z,28.94
2018-05-26T12:40:19.449Z,28.32
2018-05-26T12:42:47.060Z,27.50
2018-05-26T12:45:14.582Z,27.15
2018-05-26T12:47:42.196Z,27.08
2018-05-26T12:50:09.710Z,26.97
2018-05-26T12:52:37.258Z,26.85
2018-05-26T12:55:04.829Z,26.88
2018-05-26T12:57:33.198Z,26.88
2018-05-26T13:00:00.732Z,26.76
2018-05-26T13:02:28.246Z,26.66
2018-05-26T13:04:55.793Z,26.64
2018-05-26T13:07:23.334Z,26.53
2018-05-26T13:09:50.831Z,26.66
2018-05-26T13:12:18.385Z,27.17
2018-05-26T13:14:45.924Z,28.27
2018-05-26T13:17:13.435Z,29.42
2018-05-26T13:19:40.954Z,30.00
2018-05-26T13:22:08.521Z,30.59
2018-05-26T13:24:36.039Z,31.05
2018-05-26T13:27:03.586Z,31.47
2018-05-26T13:29:31.082Z,31.19
2018-05-26T13:31:58.626Z,31.35
2018-05-26T13:34:26.139Z,31.62
2018-05-26T13:36:54.807Z,31.63
2018-05-26T13:39:23.421Z,31.04
2018-05-26T13:41:52.073Z,30.50
2018-05-26T13:44:19.614Z,30.47
2018-05-26T13:46:47.127Z,30.66
2018-05-26T13:49:14.679Z,31.09
2018-05-26T13:51:42.160Z,31.27
2018-05-26T13:54:09.694Z,31.66
2018-05-26T13:56:37.201Z,31.73
2018-05-26T13:59:04.710Z,31.80
2018-05-26T14:01:32.234Z,31.88
2018-05-26T14:03:59.758Z,32.04
2018-05-26T14:06:27.297Z,32.23
2018-05-26T14:08:54.821Z,31.83
2018-05-26T14:11:22.360Z,31.77
2018-05-26T14:13:49.924Z,31.71
2018-05-26T14:16:17.452Z,31.91
2018-05-26T14:18:44.972Z,31.97
2018-05-26T14:21:12.486Z,31.96
2018-05-26T14:23:40.042Z,32.08
2018-05-26T14:26:07.560Z,31.66
2018-05-26T14:28:35.251Z,31.90
2018-05-26T14:31:02.854Z,31.60
2018-05-26T14:33:30.546Z,31.77
2018-05-26T14:35:58.210Z,31.64
2018-05-26T14:38:25.757Z,31.76
2018-05-26T14:40:53.305Z,32.04
2018-05-26T14:43:20.821Z,31.84
2018-05-26T14:45:48.359Z,31.91
2018-05-26T14:48:15.867Z,32.06
2018-05-26T14:50:43.400Z,32.18
2018-05-26T14:53:10.924Z,32.30
2018-05-26T14:55:38.460Z,32.18
2018-05-26T14:58:05.967Z,32.16
2018-05-26T15:00:33.467Z,32.78
2018-05-26T15:03:01.008Z,32.75
2018-05-26T15:05:28.533Z,32.87
2018-05-26T15:07:56.061Z,32.77
2018-05-26T15:10:23.608Z,32.75
2018-05-26T15:12:51.259Z,32.34
2018-05-26T15:15:18.728Z,32.17
2018-05-26T15:17:46.243Z,32.34
2018-05-26T15:20:13.750Z,32.32
2018-05-26T15:22:42.081Z,32.57
2018-05-26T15:25:09.615Z,32.43
2018-05-26T15:27:37.123Z,32.08
2018-05-26T15:30:06.079Z,32.59
2018-05-26T15:32:33.577Z,32.08
2018-05-26T15:35:01.103Z,31.97
2018-05-26T15:37:28.624Z,32.24
2018-05-26T15:39:56.204Z,32.10
2018-05-26T15:42:23.715Z,31.96
2018-05-26T15:44:52.123Z,31.90
2018-05-26T15:47:19.643Z,31.71
2018-05-26T15:49:47.150Z,31.67
2018-05-26T15:52:14.650Z,31.61
2018-05-26T15:54:42.186Z,31.72
2018-05-26T15:57:09.704Z,31.42
2018-05-26T15:59:37.244Z,31.11
2018-05-26T16:02:05.728Z,30.88
2018-05-26T16:04:33.232Z,30.72
2018-05-26T16:07:00.788Z,30.55
2018-05-26T16:09:28.286Z,30.49
2018-05-26T16:11:55.818Z,30.15
2018-05-26T16:14:23.326Z,30.08
2018-05-26T16:16:50.829Z,29.93
2018-05-26T16:19:18.374Z,29.80
2018-05-26T16:21:45.925Z,29.68
2018-05-26T16:24:13.511Z,29.56
2018-05-26T16:26:41.006Z,29.76
2018-05-26T16:29:08.552Z,29.70
2018-05-26T16:31:36.075Z,29.67
2018-05-26T16:34:03.597Z,29.25
2018-05-26T16:36:31.165Z,29.04
2018-05-26T16:38:58.667Z,29.16
2018-05-26T16:41:26.204Z,28.55
2018-05-26T16:43:53.716Z,28.06
2018-05-26T16:46:21.229Z,27.42
2018-05-26T16:48:48.748Z,26.97
2018-05-26T16:51:16.258Z,26.57
2018-05-26T16:53:43.789Z,26.47
2018-05-26T16:56:11.306Z,26.22
2018-05-26T16:58:38.911Z,26.11
2018-05-26T17:01:06.494Z,25.94
2018-05-26T17:03:33.990Z,25.74
2018-05-26T17:06:01.543Z,25.64
2018-05-26T17:08:29.062Z,25.64
2018-05-26T17:10:56.562Z,25.36
2018-05-26T17:13:24.147Z,25.34
2018-05-26T17:15:52.395Z,25.25
2018-05-26T17:18:19.949Z,25.12
2018-05-26T17:20:47.544Z,25.01
2018-05-26T17:23:15.169Z,24.94
2018-05-26T17:25:42.835Z,24.90
2018-05-26T17:28:10.341Z,24.92
2018-05-26T17:30:38.925Z,24.95
2018-05-26T17:33:06.524Z,24.94
2018-05-26T17:35:35.011Z,24.90
2018-05-26T17:38:02.541Z,24.76
2018-05-26T17:40:32.290Z,24.71
2018-05-26T17:42:59.818Z,24.68
2018-05-26T17:45:27.336Z,24.59
2018-05-26T17:47:54.966Z,24.56
2018-05-26T17:50:22.480Z,24.41
2018-05-26T17:52:50.030Z,24.25
2018-05-26T17:55:17.601Z,24.28
2018-05-26T17:57:45.130Z,24.19
2018-05-26T18:00:12.799Z,24.06
2018-05-26T18:02:40.376Z,23.93
2018-05-26T18:05:07.872Z,23.89
2018-05-26T18:07:35.370Z,23.85
2018-05-26T18:10:02.867Z,23.72
2018-05-26T18:12:32.533Z,23.56
2018-05-26T18:15:00.062Z,23.40
2018-05-26T18:17:27.613Z,23.44
2018-05-26T18:19:55.118Z,23.30
2018-05-26T18:22:23.517Z,23.24
2018-05-26T18:24:51.102Z,23.17
2018-05-26T18:27:18.655Z,23.08
2018-05-26T18:29:46.160Z,23.10
2018-05-26T18:32:13.751Z,23.01
2018-05-26T18:34:41.247Z,22.88
2018-05-26T18:37:08.834Z,22.87
2018-05-26T18:39:36.342Z,22.81
2018-05-26T18:42:03.883Z,22.70
2018-05-26T18:44:31.378Z,22.51
2018-05-26T18:46:58.879Z,22.26
2018-05-26T18:49:26.419Z,22.33
2018-05-26T18:51:53.940Z,22.24
2018-05-26T18:54:21.456Z,22.19
2018-05-26T18:56:48.981Z,22.11
2018-05-26T18:59:16.564Z,21.97
2018-05-26T19:01:44.113Z,21.93
2018-05-26T19:04:11.660Z,21.89
2018-05-26T19:06:39.238Z,21.86
2018-05-26T19:09:06.706Z,21.93
2018-05-26T19:11:34.259Z,21.85
2018-05-26T19:14:01.805Z,21.87
2018-05-26T19:16:29.305Z,21.84
2018-05-26T19:18:56.815Z,21.86
2018-05-26T19:21:24.337Z,21.80
2018-05-26T19:23:51.884Z,21.70
2018-05-26T19:26:19.399Z,21.67
2018-05-26T19:28:46.932Z,21.76
2018-05-26T19:31:14.446Z,21.73
2018-05-26T19:33:41.993Z,21.74
2018-05-26T19:36:09.512Z,21.76
2018-05-26T19:38:37.018Z,21.75
2018-05-26T19:41:04.552Z,21.73
2018-05-26T19:43:32.040Z,21.63
2018-05-26T19:45:59.557Z,21.58
2018-05-26T19:48:27.080Z,21.59
2018-05-26T19:50:54.574Z,21.57
2018-05-26T19:53:22.148Z,21.54
2018-05-26T19:55:49.674Z,21.46
2018-05-26T19:58:17.224Z,21.44
2018-05-26T20:00:44.754Z,21.49
2018-05-26T20:03:12.267Z,21.50
2018-05-26T20:05:39.791Z,21.51
2018-05-26T20:08:07.303Z,21.50
2018-05-26T20:10:34.815Z,21.54
2018-05-26T20:13:02.338Z,21.55
2018-05-26T20:15:29.845Z,21.55
2018-05-26T20:17:57.436Z,21.50
2018-05-26T20:20:24.921Z,21.49
2018-05-26T20:22:52.432Z,21.41
2018-05-26T20:25:19.943Z,21.35
2018-05-26T20:27:47.457Z,21.38
2018-05-26T20:30:14.982Z,21.44
2018-05-26T20:32:42.479Z,21.53
2018-05-26T20:35:11.527Z,21.49
2018-05-26T20:37:39.116Z,21.44
2018-05-26T20:40:06.627Z,21.34
2018-05-26T20:42:34.170Z,21.26
2018-05-26T20:45:01.684Z,21.22
2018-05-26T20:47:29.215Z,21.24
2018-05-26T20:49:56.727Z,21.22
2018-05-26T20:52:24.219Z,21.20
2018-05-26T20:54:51.772Z,21.24
2018-05-26T20:57:19.284Z,21.24
2018-05-26T20:59:47.003Z,21.14
2018-05-26T21:02:14.535Z,21.10
2018-05-26T21:04:42.079Z,21.09
2018-05-26T21:07:09.635Z,21.07
2018-05-26T21:09:37.179Z,20.98
2018-05-26T21:12:04.704Z,21.00
2018-05-26T21:14:32.215Z,20.88
2018-05-26T21:16:59.743Z,20.76
2018-05-26T21:19:27.300Z,20.75
2018-05-26T21:21:54.808Z,20.49
2018-05-26T21:24:22.315Z,20.54
2018-05-26T21:26:49.828Z,20.57
2018-05-26T21:29:17.349Z,20.58
2018-05-26T21:31:44.862Z,20.54
2018-05-26T21:34:12.366Z,20.55
2018-05-26T21:36:39.902Z,20.52
2018-05-26T21:39:07.455Z,20.38
2018-05-26T21:41:34.977Z,20.25
2018-05-26T21:44:02.503Z,20.25
2018-05-26T21:46:30.020Z,20.28
2018-05-26T21:48:57.519Z,20.30
2018-05-26T21:51:25.087Z,20.23
2018-05-26T21:53:52.603Z,20.17
2018-05-26T21:56:20.178Z,20.04
2018-05-26T21:58:47.700Z,19.91
2018-05-26T22:01:15.271Z,19.95
2018-05-26T22:03:42.787Z,19.96
2018-05-26T22:06:10.409Z,19.96
2018-05-26T22:08:37.899Z,19.96
2018-05-26T22:11:05.393Z,20.01
2018-05-26T22:13:32.908Z,20.01
2018-05-26T22:16:00.442Z,20.06
2018-05-26T22:18:27.962Z,20.05
2018-05-26T22:20:55.499Z,20.07
2018-05-26T22:23:23.003Z,20.06
2018-05-26T22:25:50.562Z,20.07
2018-05-26T22:28:18.082Z,20.06
2018-05-26T22:30:45.628Z,19.97
2018-05-26T22:33:13.135Z,19.80
2018-05-26T22:35:40.731Z,19.77
2018-05-26T22:38:08.244Z,19.83
2018-05-26T22:40:35.763Z,19.84
2018-05-26T22:43:03.308Z,19.89
2018-05-26T22:45:30.844Z,19.91
2018-05-26T22:47:58.391Z,19.96
2018-05-26T22:50:25.932Z,20.00
2018-05-26T22:52:53.447Z,20.07
2018-05-26T22:55:20.948Z,20.11
2018-05-26T22:57:48.525Z,20.10
2018-05-26T23:00:16.107Z,20.11
2018-05-26T23:02:43.639Z,20.08
2018-05-26T23:05:11.143Z,20.07
2018-05-26T23:07:38.713Z,20.04
2018-05-26T23:10:06.371Z,19.98
2018-05-26T23:12:33.938Z,20.01
2018-05-26T23:15:01.444Z,19.98
2018-05-26T23:17:28.991Z,19.83
2018-05-26T23:19:56.497Z,19.99
2018-05-26T23:22:24.021Z,19.95
2018-05-26T23:24:51.578Z,19.95
2018-05-26T23:27:19.099Z,19.94
2018-05-26T23:29:46.687Z,19.90
2018-05-26T23:32:14.239Z,19.89
2018-05-26T23:34:41.747Z,19.93
2018-05-26T23:37:09.259Z,19.95
2018-05-26T23:39:36.766Z,19.96
2018-05-26T23:42:04.323Z,19.91
2018-05-26T23:44:31.864Z,19.89
2018-05-26T23:46:59.461Z,19.64
2018-05-26T23:49:26.963Z,19.67
2018-05-26T23:51:54.495Z,19.67
2018-05-26T23:54:22.035Z,19.55
2018-05-26T23:56:49.546Z,19.44
2018-05-26T23:59:17.076Z,19.47
